createdAt,value
2023-02-27T00:00:26.025Z,100887.75
2023-02-27T00:02:53.939Z,100891.34
2023-02-27T00:05:22.800Z,100897.59
2023-02-27T00:07:51.217Z,100911.97
2023-02-27T00:10:18.980Z,100901.34
2023-02-27T00:12:47.049Z,100905.31
2023-02-27T00:15:17.275Z,100906.91
2023-02-27T00:17:45.375Z,100917.47
2023-02-27T00:20:15.842Z,100908.47
2023-02-27T00:22:43.860Z,100905.50
2023-02-27T00:25:12.668Z,100911.84
2023-02-27T00:27:40.796Z,100922.44
2023-02-27T00:30:11.086Z,100921.13
2023-02-27T00:32:39.286Z,100927.06
2023-02-27T00:35:08.561Z,100932.78
2023-02-27T00:37:36.811Z,100928.59
2023-02-27T00:40:07.497Z,100931.91
2023-02-27T00:42:35.305Z,100932.59
2023-02-27T00:45:04.071Z,100939.69
2023-02-27T00:47:33.462Z,100940.56
2023-02-27T00:50:01.331Z,100948.28
2023-02-27T00:52:28.739Z,100949.28
2023-02-27T00:54:56.134Z,100950.44
2023-02-27T00:57:23.461Z,100941.97
2023-02-27T00:59:50.908Z,100949.13
2023-02-27T01:02:18.889Z,100951.13
2023-02-27T01:04:46.200Z,100949.19
2023-02-27T01:07:13.698Z,100957.34
2023-02-27T01:09:41.134Z,100961.91
2023-02-27T01:12:08.738Z,100959.47
2023-02-27T01:14:36.845Z,100974.47
2023-02-27T01:17:04.254Z,100979.88
2023-02-27T01:19:32.232Z,100980.25
2023-02-27T01:21:59.486Z,100973.84
2023-02-27T01:24:26.934Z,100975.25
2023-02-27T01:26:54.718Z,100985.66
2023-02-27T01:29:22.238Z,100992.47
2023-02-27T01:31:49.957Z,100995.38
2023-02-27T01:34:17.638Z,100990.13
2023-02-27T01:36:45.314Z,100999.91
2023-02-27T01:39:18.297Z,100994.91
2023-02-27T01:41:45.947Z,101002.38
2023-02-27T01:44:14.470Z,101002.13
2023-02-27T01:46:42.253Z,101000.50
2023-02-27T01:49:32.679Z,101009.81
2023-02-27T01:52:11.089Z,101018.38
2023-02-27T01:54:41.825Z,101018.84
2023-02-27T01:57:09.696Z,101009.81
2023-02-27T01:59:40.449Z,101009.22
2023-02-27T02:02:19.916Z,101005.69
2023-02-27T02:04:48.619Z,101009.25
2023-02-27T02:07:19.394Z,101013.09
2023-02-27T02:09:53.849Z,101018.09
2023-02-27T02:12:25.024Z,101026.56
2023-02-27T02:14:52.662Z,101018.22
2023-02-27T02:17:43.879Z,101026.94
2023-02-27T02:20:17.821Z,101031.03
2023-02-27T02:23:03.497Z,101035.34
2023-02-27T02:25:49.350Z,101035.13
2023-02-27T02:28:25.634Z,101042.03
2023-02-27T02:31:30.626Z,101039.91
2023-02-27T02:34:19.363Z,101037.13
2023-02-27T02:36:58.812Z,101046.06
2023-02-27T02:39:50.854Z,101049.34
2023-02-27T02:42:36.832Z,101053.44
2023-02-27T02:45:43.961Z,101053.97
2023-02-27T02:48:17.238Z,101050.78
2023-02-27T02:50:54.743Z,101055.22
2023-02-27T02:53:40.146Z,101050.69
2023-02-27T02:56:21.833Z,101054.38
2023-02-27T02:58:55.104Z,101053.38
2023-02-27T03:01:39.040Z,101066.63
2023-02-27T03:04:20.916Z,101064.19
2023-02-27T03:06:56.373Z,101066.88
2023-02-27T03:09:37.292Z,101066.31
2023-02-27T03:12:10.159Z,101070.41
2023-02-27T03:14:43.531Z,101067.31
2023-02-27T03:17:18.115Z,101061.53
2023-02-27T03:20:11.145Z,101064.31
2023-02-27T03:22:44.521Z,101075.09
2023-02-27T03:25:14.250Z,101079.38
2023-02-27T03:27:54.292Z,101077.31
2023-02-27T03:30:37.449Z,101080.53
2023-02-27T03:33:15.176Z,101082.75
2023-02-27T03:35:47.032Z,101085.63
2023-02-27T03:38:24.497Z,101085.66
2023-02-27T03:41:26.139Z,101095.56
2023-02-27T03:44:29.390Z,101095.34
2023-02-27T03:46:57.317Z,101093.78
2023-02-27T03:49:24.882Z,101099.78
2023-02-27T03:51:52.494Z,101097.31
2023-02-27T03:54:27.138Z,101102.69
2023-02-27T03:57:00.099Z,101103.13
2023-02-27T03:59:28.593Z,101108.44
2023-02-27T04:02:04.531Z,101118.41
2023-02-27T04:04:38.940Z,101126.78
2023-02-27T04:07:24.475Z,101119.53
2023-02-27T04:10:13.719Z,101124.03
2023-02-27T04:13:03.613Z,101126.19
2023-02-27T04:16:01.979Z,101129.53
2023-02-27T04:18:48.233Z,101128.13
2023-02-27T04:21:42.491Z,101133.44
2023-02-27T04:24:27.939Z,101142.44
2023-02-27T04:27:19.720Z,101136.59
2023-02-27T04:30:09.670Z,101142.44
2023-02-27T04:32:46.121Z,101146.09
2023-02-27T04:35:29.300Z,101146.78
2023-02-27T04:38:20.706Z,101150.44
2023-02-27T04:40:54.722Z,101149.75
2023-02-27T04:43:25.035Z,101151.41
2023-02-27T04:45:56.756Z,101148.69
2023-02-27T04:48:29.525Z,101161.44
2023-02-27T04:51:29.730Z,101164.56
2023-02-27T04:54:02.391Z,101166.72
2023-02-27T04:56:41.944Z,101165.16
2023-02-27T04:59:23.074Z,101165.16
2023-02-27T05:02:13.611Z,101168.31
2023-02-27T05:04:44.052Z,101163.88
2023-02-27T05:07:16.451Z,101162.84
2023-02-27T05:09:49.359Z,101164.28
2023-02-27T05:12:28.850Z,101161.94
2023-02-27T05:15:17.235Z,101167.56
2023-02-27T05:17:53.714Z,101169.50
2023-02-27T05:20:24.610Z,101176.50
2023-02-27T05:23:14.641Z,101180.78
2023-02-27T05:26:00.761Z,101175.59
2023-02-27T05:28:39.891Z,101178.56
2023-02-27T05:31:21.728Z,101185.91
2023-02-27T05:33:56.874Z,101192.81
2023-02-27T05:36:34.591Z,101180.22
2023-02-27T05:39:06.194Z,101184.44
2023-02-27T05:41:40.847Z,101188.47
2023-02-27T05:44:13.416Z,101185.94
2023-02-27T05:46:46.605Z,101192.66
2023-02-27T05:49:30.606Z,101198.19
2023-02-27T05:52:02.903Z,101192.97
2023-02-27T05:54:34.889Z,101199.63
2023-02-27T05:57:04.929Z,101197.06
2023-02-27T05:59:39.054Z,101204.63
2023-02-27T06:02:06.411Z,101207.41
2023-02-27T06:04:33.767Z,101214.81
2023-02-27T06:07:01.369Z,101218.78
2023-02-27T06:09:29.086Z,101222.59
2023-02-27T06:11:59.868Z,101224.31
2023-02-27T06:14:27.644Z,101231.81
2023-02-27T06:16:55.257Z,101233.94
2023-02-27T06:19:23.671Z,101239.59
2023-02-27T06:21:51.042Z,101245.84
2023-02-27T06:24:18.336Z,101248.22
2023-02-27T06:26:47.242Z,101243.28
2023-02-27T06:29:14.781Z,101253.91
2023-02-27T06:31:42.142Z,101260.56
2023-02-27T06:34:09.926Z,101261.00
2023-02-27T06:36:37.302Z,101261.97
2023-02-27T06:39:05.116Z,101260.72
2023-02-27T06:41:32.802Z,101274.16
2023-02-27T06:44:00.225Z,101269.78
2023-02-27T06:46:28.402Z,101276.00
2023-02-27T06:48:56.157Z,101281.38
2023-02-27T06:51:23.479Z,101283.81
2023-02-27T06:53:50.852Z,101286.66
2023-02-27T06:56:18.754Z,101288.19
2023-02-27T06:58:46.062Z,101288.22
2023-02-27T07:01:14.585Z,101291.72
2023-02-27T07:03:42.455Z,101289.44
2023-02-27T07:06:10.514Z,101297.78
2023-02-27T07:08:38.434Z,101298.81
2023-02-27T07:11:26.133Z,101304.63
2023-02-27T07:13:53.405Z,101304.63
2023-02-27T07:16:21.058Z,101308.59
2023-02-27T07:18:48.290Z,101307.19
2023-02-27T07:21:16.262Z,101314.00
2023-02-27T07:23:44.122Z,101313.28
2023-02-27T07:26:11.429Z,101320.22
2023-02-27T07:28:39.186Z,101320.09
2023-02-27T07:31:06.583Z,101320.06
2023-02-27T07:33:34.538Z,101323.56
2023-02-27T07:36:02.317Z,101321.09
2023-02-27T07:38:32.162Z,101325.66
2023-02-27T07:40:59.682Z,101326.44
2023-02-27T07:43:27.122Z,101337.19
2023-02-27T07:45:54.546Z,101337.91
2023-02-27T07:48:22.199Z,101337.13
2023-02-27T07:50:49.586Z,101346.19
2023-02-27T07:53:17.342Z,101346.16
2023-02-27T07:55:45.854Z,101344.47
2023-02-27T07:58:13.146Z,101350.28
2023-02-27T08:00:40.493Z,101348.31
2023-02-27T08:03:08.094Z,101351.09
2023-02-27T08:05:37.017Z,101348.22
2023-02-27T08:08:05.856Z,101364.09
2023-02-27T08:10:33.178Z,101359.78
2023-02-27T08:13:00.862Z,101368.50
2023-02-27T08:15:28.722Z,101368.69
2023-02-27T08:17:56.145Z,101362.13
2023-02-27T08:20:24.233Z,101362.34
2023-02-27T08:22:51.623Z,101366.75
2023-02-27T08:25:20.166Z,101372.59
2023-02-27T08:27:48.172Z,101374.31
2023-02-27T08:30:19.509Z,101374.78
2023-02-27T08:32:47.187Z,101370.34
2023-02-27T08:35:14.721Z,101381.34
2023-02-27T08:37:42.075Z,101368.44
2023-02-27T08:40:10.955Z,101368.50
2023-02-27T08:42:38.684Z,101381.16
2023-02-27T08:45:07.327Z,101373.25
2023-02-27T08:47:35.112Z,101378.34
2023-02-27T08:50:02.989Z,101375.59
2023-02-27T08:52:31.226Z,101379.28
2023-02-27T08:54:59.186Z,101375.66
2023-02-27T08:57:26.820Z,101383.59
2023-02-27T08:59:54.048Z,101385.84
2023-02-27T09:02:25.911Z,101383.59
2023-02-27T09:04:54.168Z,101382.97
2023-02-27T09:07:21.508Z,101378.88
2023-02-27T09:09:50.075Z,101384.69
2023-02-27T09:12:18.050Z,101381.84
2023-02-27T09:14:45.967Z,101389.47
2023-02-27T09:17:13.325Z,101393.63
2023-02-27T09:19:40.580Z,101397.03
2023-02-27T09:22:08.377Z,101398.66
2023-02-27T09:24:35.721Z,101407.59
2023-02-27T09:27:03.428Z,101403.75
2023-02-27T09:29:31.056Z,101397.72
2023-02-27T09:31:58.934Z,101411.44
2023-02-27T09:34:26.347Z,101406.78
2023-02-27T09:36:53.641Z,101397.50
2023-02-27T09:39:21.375Z,101412.13
2023-02-27T09:42:00.159Z,101401.38
2023-02-27T09:44:46.223Z,101413.28
2023-02-27T09:47:24.712Z,101412.44
2023-02-27T09:50:06.359Z,101426.38
2023-02-27T09:52:36.393Z,101417.88
2023-02-27T09:55:21.814Z,101418.88
2023-02-27T09:58:06.791Z,101433.22
2023-02-27T10:00:53.025Z,101430.09
2023-02-27T10:04:08.887Z,101430.50
2023-02-27T10:06:48.493Z,101426.47
2023-02-27T10:09:18.470Z,101436.50
2023-02-27T10:11:49.119Z,101440.19
2023-02-27T10:14:25.086Z,101432.78
2023-02-27T10:16:54.039Z,101435.97
2023-02-27T10:19:28.986Z,101440.00
2023-02-27T10:21:59.870Z,101443.63
2023-02-27T10:24:42.676Z,101448.06
2023-02-27T10:27:19.126Z,101446.75
2023-02-27T10:29:46.985Z,101442.72
2023-02-27T10:32:27.202Z,101440.69
2023-02-27T10:35:07.317Z,101438.81
2023-02-27T10:37:38.571Z,101435.09
2023-02-27T10:40:07.132Z,101439.69
2023-02-27T10:42:40.697Z,101444.09
2023-02-27T10:45:16.190Z,101440.00
2023-02-27T10:47:44.859Z,101441.38
2023-02-27T10:50:33.571Z,101439.31
2023-02-27T10:53:03.794Z,101429.66
2023-02-27T10:55:38.330Z,101433.69
2023-02-27T10:58:06.118Z,101438.41
2023-02-27T11:01:12.770Z,101440.97
2023-02-27T11:03:44.212Z,101439.50
2023-02-27T11:06:22.892Z,101440.34
2023-02-27T11:09:30.307Z,101432.88
2023-02-27T11:12:11.664Z,101435.78
2023-02-27T11:14:55.788Z,101433.84
2023-02-27T11:17:32.494Z,101431.31
2023-02-27T11:20:02.241Z,101425.38
2023-02-27T11:22:31.882Z,101419.59
2023-02-27T11:25:23.140Z,101413.72
2023-02-27T11:27:52.185Z,101416.84
2023-02-27T11:30:27.350Z,101416.09
2023-02-27T11:32:59.766Z,101416.31
2023-02-27T11:35:35.122Z,101424.19
2023-02-27T11:38:16.510Z,101418.34
2023-02-27T11:40:52.203Z,101422.38
2023-02-27T11:43:33.647Z,101408.56
2023-02-27T11:46:46.572Z,101410.13
2023-02-27T11:49:26.990Z,101414.13
2023-02-27T11:52:12.061Z,101403.00
2023-02-27T11:54:43.077Z,101410.19
2023-02-27T11:57:21.010Z,101409.34
2023-02-27T11:59:57.304Z,101415.97
2023-02-27T12:02:30.034Z,101412.09
2023-02-27T12:05:17.446Z,101407.84
2023-02-27T12:08:11.235Z,101405.16
2023-02-27T12:11:13.730Z,101409.53
2023-02-27T12:13:49.594Z,101409.94
2023-02-27T12:16:42.955Z,101400.03
2023-02-27T12:19:35.469Z,101395.69
2023-02-27T12:22:20.069Z,101395.50
2023-02-27T12:24:53.922Z,101396.47
2023-02-27T12:27:29.793Z,101390.69
2023-02-27T12:30:05.352Z,101387.75
2023-02-27T12:32:40.742Z,101390.16
2023-02-27T12:35:14.097Z,101386.69
2023-02-27T12:37:42.115Z,101376.47
2023-02-27T12:40:18.337Z,101376.13
2023-02-27T12:43:08.528Z,101375.69
2023-02-27T12:46:20.860Z,101371.56
2023-02-27T12:48:54.217Z,101372.84
2023-02-27T12:51:40.598Z,101369.34
2023-02-27T12:54:18.242Z,101371.19
2023-02-27T12:57:07.026Z,101370.81
2023-02-27T12:59:53.794Z,101368.72
2023-02-27T13:02:27.186Z,101372.84
2023-02-27T13:04:55.107Z,101377.50
2023-02-27T13:07:38.632Z,101372.69
2023-02-27T13:10:22.975Z,101371.16
2023-02-27T13:12:57.743Z,101364.16
2023-02-27T13:15:33.810Z,101362.66
2023-02-27T13:18:16.583Z,101362.16
2023-02-27T13:21:01.469Z,101361.63
2023-02-27T13:23:35.000Z,101363.38
2023-02-27T13:26:10.549Z,101360.38
2023-02-27T13:28:38.707Z,101368.25
2023-02-27T13:31:05.980Z,101364.78
2023-02-27T13:33:42.888Z,101361.50
2023-02-27T13:36:18.827Z,101370.00
2023-02-27T13:38:48.949Z,101361.72
2023-02-27T13:41:28.921Z,101373.41
2023-02-27T13:44:20.301Z,101369.91
2023-02-27T13:46:48.011Z,101369.06
2023-02-27T13:49:28.200Z,101372.47
2023-02-27T13:51:59.589Z,101363.00
2023-02-27T13:54:33.802Z,101371.16
2023-02-27T13:57:25.252Z,101369.03
2023-02-27T14:00:01.915Z,101363.81
2023-02-27T14:03:01.831Z,101367.69
2023-02-27T14:05:40.415Z,101375.84
2023-02-27T14:08:14.894Z,101367.66
2023-02-27T14:11:11.849Z,101369.59
2023-02-27T14:13:45.633Z,101376.94
2023-02-27T14:16:39.102Z,101373.56
2023-02-27T14:19:16.440Z,101366.47
2023-02-27T14:21:57.882Z,101371.44
2023-02-27T14:25:01.014Z,101364.97
2023-02-27T14:27:53.827Z,101374.06
2023-02-27T14:30:36.544Z,101373.72
2023-02-27T14:33:13.615Z,101377.72
2023-02-27T14:35:45.720Z,101371.06
2023-02-27T14:38:17.786Z,101369.44
2023-02-27T14:41:03.589Z,101379.34
2023-02-27T14:43:43.550Z,101373.50
2023-02-27T14:46:24.992Z,101371.28
2023-02-27T14:48:57.666Z,101374.44
2023-02-27T14:51:27.019Z,101380.31
2023-02-27T14:54:06.983Z,101380.72
2023-02-27T14:56:35.314Z,101383.06
2023-02-27T14:59:04.653Z,101384.19
2023-02-27T15:01:36.409Z,101374.69
2023-02-27T15:04:05.594Z,101379.53
2023-02-27T15:06:54.409Z,101382.28
2023-02-27T15:09:33.756Z,101377.06
2023-02-27T15:12:04.517Z,101379.69
2023-02-27T15:14:40.272Z,101382.78
2023-02-27T15:17:38.183Z,101390.22
2023-02-27T15:20:25.593Z,101384.09
2023-02-27T15:22:53.680Z,101385.31
2023-02-27T15:25:38.899Z,101394.16
2023-02-27T15:28:22.377Z,101387.44
2023-02-27T15:30:51.309Z,101387.97
2023-02-27T15:33:24.847Z,101386.78
2023-02-27T15:35:52.843Z,101392.72
2023-02-27T15:38:25.878Z,101398.81
2023-02-27T15:40:54.322Z,101406.81
2023-02-27T15:43:22.882Z,101404.91
2023-02-27T15:45:50.867Z,101409.84
2023-02-27T15:48:19.447Z,101423.31
2023-02-27T15:50:57.692Z,101425.53
2023-02-27T15:53:27.526Z,101418.91
2023-02-27T15:56:01.591Z,101427.38
2023-02-27T15:58:46.839Z,101421.34
2023-02-27T16:01:20.618Z,101422.88
2023-02-27T16:03:54.707Z,101426.47
2023-02-27T16:06:30.005Z,101427.47
2023-02-27T16:09:20.399Z,101426.78
2023-02-27T16:11:48.053Z,101437.63
2023-02-27T16:14:44.894Z,101437.63
2023-02-27T16:17:25.325Z,101440.63
2023-02-27T16:19:55.150Z,101439.34
2023-02-27T16:22:22.762Z,101440.00
2023-02-27T16:24:51.733Z,101439.50
2023-02-27T16:27:27.939Z,101438.31
2023-02-27T16:30:02.370Z,101440.34
2023-02-27T16:32:39.731Z,101445.25
2023-02-27T16:35:16.535Z,101444.25
2023-02-27T16:37:45.971Z,101449.53
2023-02-27T16:40:19.336Z,101454.94
2023-02-27T16:42:47.075Z,101456.63
2023-02-27T16:45:17.625Z,101466.63
2023-02-27T16:47:47.842Z,101469.19
2023-02-27T16:50:35.025Z,101467.28
2023-02-27T16:53:02.886Z,101472.53
2023-02-27T16:55:33.362Z,101473.75
2023-02-27T16:58:00.911Z,101479.75
2023-02-27T17:00:28.609Z,101479.19
2023-02-27T17:02:55.952Z,101487.06
2023-02-27T17:05:24.373Z,101491.50
2023-02-27T17:07:51.899Z,101492.81
2023-02-27T17:10:25.673Z,101501.97
2023-02-27T17:12:53.193Z,101500.38
2023-02-27T17:15:21.221Z,101509.78
2023-02-27T17:17:48.996Z,101507.47
2023-02-27T17:20:16.520Z,101508.84
2023-02-27T17:22:45.055Z,101508.75
2023-02-27T17:25:13.677Z,101514.06
2023-02-27T17:27:43.499Z,101520.19
2023-02-27T17:30:12.452Z,101522.72
2023-02-27T17:32:40.026Z,101528.75
2023-02-27T17:35:08.840Z,101527.81
2023-02-27T17:37:36.745Z,101532.31
2023-02-27T17:40:05.981Z,101542.03
2023-02-27T17:42:36.509Z,101537.41
2023-02-27T17:45:06.376Z,101544.00
2023-02-27T17:47:34.247Z,101544.22
2023-02-27T17:50:01.834Z,101547.50
2023-02-27T17:52:29.153Z,101549.28
2023-02-27T17:54:56.907Z,101560.94
2023-02-27T17:57:24.179Z,101560.47
2023-02-27T17:59:52.132Z,101563.88
2023-02-27T18:02:20.162Z,101564.91
2023-02-27T18:04:47.969Z,101568.44
2023-02-27T18:07:15.714Z,101575.88
2023-02-27T18:09:45.710Z,101574.31
2023-02-27T18:12:13.252Z,101581.81
2023-02-27T18:14:42.836Z,101581.16
2023-02-27T18:17:12.526Z,101577.38
2023-02-27T18:19:41.697Z,101583.72
2023-02-27T18:22:10.628Z,101589.44
2023-02-27T18:24:38.254Z,101601.19
2023-02-27T18:27:08.169Z,101592.66
2023-02-27T18:29:37.114Z,101590.28
2023-02-27T18:32:07.999Z,101590.75
2023-02-27T18:34:35.892Z,101594.22
2023-02-27T18:37:03.160Z,101594.75
2023-02-27T18:39:30.559Z,101606.44
2023-02-27T18:41:58.586Z,101602.19
2023-02-27T18:44:25.900Z,101603.03
2023-02-27T18:46:54.151Z,101612.84
2023-02-27T18:49:21.843Z,101614.00
2023-02-27T18:51:49.561Z,101612.22
2023-02-27T18:54:16.928Z,101612.38
2023-02-27T18:56:44.294Z,101613.56
2023-02-27T18:59:12.069Z,101622.28
2023-02-27T19:01:39.769Z,101619.59
2023-02-27T19:04:09.340Z,101618.63
2023-02-27T19:06:40.830Z,101616.09
2023-02-27T19:09:12.001Z,101618.63
2023-02-27T19:11:39.897Z,101632.44
2023-02-27T19:14:10.622Z,101628.81
2023-02-27T19:16:38.895Z,101632.22
2023-02-27T19:19:08.622Z,101641.16
2023-02-27T19:21:36.386Z,101640.00
2023-02-27T19:24:03.840Z,101644.03
2023-02-27T19:26:33.967Z,101652.47
2023-02-27T19:29:02.021Z,101648.06
2023-02-27T19:31:29.554Z,101650.00
2023-02-27T19:33:57.246Z,101658.31
2023-02-27T19:36:28.273Z,101657.09
2023-02-27T19:38:56.796Z,101658.03
2023-02-27T19:41:24.911Z,101657.25
2023-02-27T19:43:52.372Z,101663.06
2023-02-27T19:46:23.954Z,101665.06
2023-02-27T19:48:57.929Z,101665.44
2023-02-27T19:51:26.572Z,101664.47
2023-02-27T19:53:54.094Z,101669.41
2023-02-27T19:56:24.811Z,101667.44
2023-02-27T19:58:53.918Z,101671.09
2023-02-27T20:01:34.098Z,101672.78
2023-02-27T20:04:02.857Z,101675.34
2023-02-27T20:06:32.974Z,101665.91
2023-02-27T20:09:01.020Z,101666.78
2023-02-27T20:11:32.650Z,101670.09
2023-02-27T20:14:00.634Z,101665.81
2023-02-27T20:16:30.608Z,101670.19
2023-02-27T20:18:58.806Z,101675.13
2023-02-27T20:21:28.562Z,101673.56
2023-02-27T20:23:57.924Z,101688.28
2023-02-27T20:26:31.511Z,101681.81
2023-02-27T20:29:01.282Z,101692.94
2023-02-27T20:31:32.011Z,101686.19
2023-02-27T20:34:01.146Z,101692.47
2023-02-27T20:36:28.635Z,101697.00
2023-02-27T20:38:56.600Z,101693.38
2023-02-27T20:41:29.769Z,101696.03
2023-02-27T20:43:57.856Z,101703.13
2023-02-27T20:46:28.506Z,101707.06
2023-02-27T20:49:02.100Z,101699.25
2023-02-27T20:51:36.226Z,101708.16
2023-02-27T20:54:07.803Z,101712.78
2023-02-27T20:56:41.286Z,101707.41
2023-02-27T20:59:13.676Z,101713.03
2023-02-27T21:01:42.749Z,101715.63
2023-02-27T21:04:10.223Z,101714.69
2023-02-27T21:06:37.822Z,101721.41
2023-02-27T21:09:06.597Z,101716.78
2023-02-27T21:11:34.039Z,101715.34
2023-02-27T21:14:09.193Z,101712.94
2023-02-27T21:16:39.881Z,101721.50
2023-02-27T21:19:08.360Z,101714.94
2023-02-27T21:21:36.876Z,101713.69
2023-02-27T21:24:06.075Z,101711.69
2023-02-27T21:26:38.228Z,101717.56
2023-02-27T21:29:09.280Z,101715.94
2023-02-27T21:31:38.041Z,101715.53
2023-02-27T21:34:08.414Z,101721.66
2023-02-27T21:36:42.235Z,101720.69
2023-02-27T21:39:17.517Z,101727.34
2023-02-27T21:41:46.030Z,101723.09
2023-02-27T21:44:16.768Z,101731.75
2023-02-27T21:46:45.403Z,101732.91
2023-02-27T21:49:19.471Z,101742.78
2023-02-27T21:51:47.203Z,101744.31
2023-02-27T21:54:16.601Z,101737.91
2023-02-27T21:56:45.118Z,101747.84
2023-02-27T21:59:13.876Z,101747.38
2023-02-27T22:01:42.054Z,101748.56
2023-02-27T22:04:09.416Z,101746.88
2023-02-27T22:06:36.955Z,101754.41
2023-02-27T22:09:05.983Z,101750.00
2023-02-27T22:11:34.313Z,101754.28
2023-02-27T22:14:03.107Z,101754.53
2023-02-27T22:16:30.682Z,101756.69
2023-02-27T22:18:58.448Z,101761.38
